Bow Saga — LADM7 — position and weather

sailwx.info

Track history (hours):
 
Tides and Currents Weather Stations Pressure Air Temp Water Temp Dewpoint Dewpoint Depression Visibility Wind Speed Wind Dir Waves Ship Positions

Bow Saga

Last reported at 2017-Dec-03 22:43 UTC. Time now 2017-Dec-14 16:50 UTC.
Position N 22°26' E 119°55'.
Warning: this ship's position is 10 days out of date.

Length 178 m; draft 9.8 m.

Type: Ship (hazmat cat B). MMSI: 258960000.

Date/timePositionNaut miles runAvg speedWind from/ knotsBaromVisibWave heightAir tempDewpointWater temp
2017-Dec-03 22:43N 22°26' E 119°55'314.8
2017-Dec-03 22:30N 22°28' E 119°57'815.8
2017-Dec-03 22:00N 22°31' E 120°05'815.3
2017-Dec-03 21:30N 22°33' E 120°13'510.5
2017-Dec-03 21:01N 22°33' E 120°19'2 4.0
2017-Dec-03 20:30N 22°35' E 120°18'0 0.3
2017-Dec-03 19:58N 22°35' E 120°18'0 0.0
2017-Dec-03 19:30N 22°35' E 120°18'0 0.0
2017-Dec-03 18:57N 22°35' E 120°18'0 0.0
2017-Dec-03 18:27N 22°35' E 120°18'0 0.0
2017-Dec-03 18:00N 22°35' E 120°18'0 0.0
2017-Dec-03 17:27N 22°35' E 120°18'0 0.0
2017-Dec-03 17:00N 22°35' E 120°18'0 0.0
2017-Dec-03 16:30N 22°35' E 120°18'0 0.0
2017-Dec-03 16:00N 22°35' E 120°18'0 0.0
2017-Dec-03 15:30N 22°35' E 120°18'0 0.0
2017-Dec-03 15:00N 22°35' E 120°18'0 0.0
2017-Dec-03 14:30N 22°35' E 120°18'0 0.0
2017-Dec-03 14:00N 22°35' E 120°18'0 0.0
2017-Dec-03 13:30N 22°35' E 120°18'0 0.0
2017-Dec-03 12:57N 22°35' E 120°18'0 0.0
2017-Dec-03 12:30N 22°35' E 120°18'0 0.0
2017-Dec-03 11:54N 22°35' E 120°18'0 0.0
2017-Dec-03 11:30N 22°35' E 120°18'0 0.0
2017-Dec-03 11:00N 22°35' E 120°18'0 0.0
2017-Dec-03 10:30N 22°35' E 120°18'0 0.0
2017-Dec-03 09:57N 22°35' E 120°18'0 0.0
2017-Dec-03 09:30N 22°35' E 120°18'0 0.0
2017-Dec-03 09:00N 22°35' E 120°18'1 1.7
2017-Dec-03 08:30N 22°34' E 120°18'3 5.2
2017-Dec-03 08:00N 22°33' E 120°16'3 6.9
2017-Dec-03 07:30N 22°32' E 120°13'3 5.1
2017-Dec-03 07:00N 22°33' E 120°11'0 0.9
2017-Dec-03 06:30N 22°34' E 120°10'0 0.6
2017-Dec-03 06:00N 22°33' E 120°10'3 6.3
2017-Dec-03 05:30N 22°36' E 120°08'4 7.8
2017-Dec-03 05:00N 22°40' E 120°07'4 7.5
2017-Dec-03 04:31N 22°42' E 120°05'713.0
2017-Dec-03 04:00N 22°47' E 119°59'713.9
2017-Dec-03 03:30N 22°52' E 119°55'1215.3
2017-Dec-03 02:45N 23°04' E 119°54'1014.9
2017-Dec-03 02:05N 23°14' E 119°54'714.1
2017-Dec-03 01:37N 23°20' E 119°54'314.0
2017-Dec-03 01:22N 23°24' E 119°54'513.2
2017-Dec-03 00:59N 23°29' E 119°55'813.8
2017-Dec-03 00:24N 23°37' E 119°56'1 0.1
2017-Dec-02 04:40N 23°38' E 119°56'1 3.4
2017-Dec-02 04:24N 23°37' E 119°56'1 2.8
2017-Dec-02 03:59N 23°36' E 119°55'1 2.6
2017-Dec-02 03:30N 23°35' E 119°55'2 3.7
2017-Dec-02 03:01N 23°33' E 119°54'  
Track history (hours):
 
Tides and Currents Weather Stations Pressure Air Temp Water Temp Dewpoint Dewpoint Depression Visibility Wind Speed Wind Dir Waves Ship Positions

Bow Saga

Last reported at 2017-Dec-03 22:43 UTC. Time now 2017-Dec-14 16:50 UTC.
Position N 22°26' E 119°55'.
Warning: this ship's position is 10 days out of date.

Length 178 m; draft 9.8 m.

Type: Ship (hazmat cat B). MMSI: 258960000.

Date/timePositionNaut miles runAvg speedWind from/ knotsBaromVisibWave heightAir tempDewpointWater temp
2017-Dec-03 22:43N 22°26' E 119°55'314.8
2017-Dec-03 22:30N 22°28' E 119°57'815.8
2017-Dec-03 22:00N 22°31' E 120°05'815.3
2017-Dec-03 21:30N 22°33' E 120°13'510.5
2017-Dec-03 21:01N 22°33' E 120°19'2 4.0
2017-Dec-03 20:30N 22°35' E 120°18'0 0.3
2017-Dec-03 19:58N 22°35' E 120°18'0 0.0
2017-Dec-03 19:30N 22°35' E 120°18'0 0.0
2017-Dec-03 18:57N 22°35' E 120°18'0 0.0
2017-Dec-03 18:27N 22°35' E 120°18'0 0.0
2017-Dec-03 18:00N 22°35' E 120°18'0 0.0
2017-Dec-03 17:27N 22°35' E 120°18'0 0.0
2017-Dec-03 17:00N 22°35' E 120°18'0 0.0
2017-Dec-03 16:30N 22°35' E 120°18'0 0.0
2017-Dec-03 16:00N 22°35' E 120°18'0 0.0
2017-Dec-03 15:30N 22°35' E 120°18'0 0.0
2017-Dec-03 15:00N 22°35' E 120°18'0 0.0
2017-Dec-03 14:30N 22°35' E 120°18'0 0.0
2017-Dec-03 14:00N 22°35' E 120°18'0 0.0
2017-Dec-03 13:30N 22°35' E 120°18'0 0.0
2017-Dec-03 12:57N 22°35' E 120°18'0 0.0
2017-Dec-03 12:30N 22°35' E 120°18'0 0.0
2017-Dec-03 11:54N 22°35' E 120°18'0 0.0
2017-Dec-03 11:30N 22°35' E 120°18'0 0.0
2017-Dec-03 11:00N 22°35' E 120°18'0 0.0
2017-Dec-03 10:30N 22°35' E 120°18'0 0.0
2017-Dec-03 09:57N 22°35' E 120°18'0 0.0
2017-Dec-03 09:30N 22°35' E 120°18'0 0.0
2017-Dec-03 09:00N 22°35' E 120°18'1 1.7
2017-Dec-03 08:30N 22°34' E 120°18'3 5.2
2017-Dec-03 08:00N 22°33' E 120°16'3 6.9
2017-Dec-03 07:30N 22°32' E 120°13'3 5.1
2017-Dec-03 07:00N 22°33' E 120°11'0 0.9
2017-Dec-03 06:30N 22°34' E 120°10'0 0.6
2017-Dec-03 06:00N 22°33' E 120°10'3 6.3
2017-Dec-03 05:30N 22°36' E 120°08'4 7.8
2017-Dec-03 05:00N 22°40' E 120°07'4 7.5
2017-Dec-03 04:31N 22°42' E 120°05'713.0
2017-Dec-03 04:00N 22°47' E 119°59'713.9
2017-Dec-03 03:30N 22°52' E 119°55'1215.3
2017-Dec-03 02:45N 23°04' E 119°54'1014.9
2017-Dec-03 02:05N 23°14' E 119°54'714.1
2017-Dec-03 01:37N 23°20' E 119°54'314.0
2017-Dec-03 01:22N 23°24' E 119°54'513.2
2017-Dec-03 00:59N 23°29' E 119°55'813.8
2017-Dec-03 00:24N 23°37' E 119°56'1 0.1
2017-Dec-02 04:40N 23°38' E 119°56'1 3.4
2017-Dec-02 04:24N 23°37' E 119°56'1 2.8
2017-Dec-02 03:59N 23°36' E 119°55'1 2.6
2017-Dec-02 03:30N 23°35' E 119°55'2 3.7
2017-Dec-02 03:01N 23°33' E 119°54'  

Dump ship's entire track history